TimeEST,TemperatureF,Dew PointF,Humidity,Sea Level PressureIn,VisibilityMPH,Wind Direction,Wind SpeedMPH,Gust SpeedMPH,PrecipitationIn,Events,Conditions,WindDirDegrees,DateUTC
12:15 AM,26.6,12.2,55,29.95,10.0,West,17.3,32.2,N/A,,Overcast,280,2013-01-22 05:15:00
12:55 AM,23.0,8.6,54,29.96,10.0,NW,23.0,27.6,N/A,,Overcast,310,2013-01-22 05:55:00
1:15 AM,23.0,6.8,50,29.97,10.0,WNW,21.9,31.1,N/A,,Scattered Clouds,300,2013-01-22 06:15:00
1:35 AM,21.2,6.8,54,29.98,10.0,WNW,20.7,26.5,N/A,,Clear,290,2013-01-22 06:35:00
1:55 AM,21.2,6.8,54,30.00,10.0,West,16.1,24.2,N/A,,Scattered Clouds,280,2013-01-22 06:55:00
2:15 AM,21.2,5.0,50,30.00,10.0,West,17.3,25.3,N/A,,Scattered Clouds,280,2013-01-22 07:15:00
2:35 AM,21.2,5.0,50,30.02,10.0,WNW,20.7,25.3,N/A,,Scattered Clouds,300,2013-01-22 07:35:00
2:55 AM,19.4,3.2,49,30.03,10.0,WNW,20.7,29.9,N/A,,Clear,290,2013-01-22 07:55:00
3:15 AM,19.4,3.2,49,30.03,10.0,West,13.8,17.3,N/A,,Clear,280,2013-01-22 08:15:00
3:35 AM,19.4,3.2,49,30.04,10.0,NW,17.3,24.2,N/A,,Clear,310,2013-01-22 08:35:00
3:55 AM,17.6,3.2,53,30.04,10.0,WNW,15.0,21.9,N/A,,Clear,290,2013-01-22 08:55:00
4:15 AM,17.6,1.4,49,30.04,10.0,WNW,18.4,25.3,N/A,,Clear,290,2013-01-22 09:15:00
4:35 AM,17.6,1.4,49,30.05,10.0,WNW,20.7,24.2,N/A,,Unknown,300,2013-01-22 09:35:00
4:55 AM,17.6,3.2,53,30.05,10.0,WNW,18.4,23.0,N/A,,Unknown,300,2013-01-22 09:55:00
5:15 AM,17.6,1.4,49,30.06,10.0,NW,18.4,-,N/A,,Clear,310,2013-01-22 10:15:00
5:35 AM,17.6,1.4,49,30.08,10.0,WNW,17.3,21.9,N/A,,Clear,290,2013-01-22 10:35:00
5:55 AM,17.6,1.4,49,30.08,10.0,WNW,13.8,24.2,N/A,,Clear,290,2013-01-22 10:55:00
6:15 AM,15.8,1.4,53,30.10,10.0,WNW,11.5,18.4,N/A,,Clear,300,2013-01-22 11:15:00
6:55 AM,14.0,1.4,57,30.12,10.0,WNW,16.1,-,N/A,,Clear,300,2013-01-22 11:55:00
7:15 AM,14.0,1.4,57,30.13,10.0,WNW,18.4,24.2,N/A,,Clear,290,2013-01-22 12:15:00
7:35 AM,-9999,-9999,N/A,30.13,10.0,WNW,20.7,25.3,N/A,,Clear,290,2013-01-22 12:35:00
7:55 AM,-9999,-9999,N/A,30.15,10.0,WNW,20.7,26.5,N/A,,Clear,290,2013-01-22 12:55:00
8:15 AM,-9999,-9999,N/A,30.17,10.0,WNW,15.0,20.7,N/A,,Clear,290,2013-01-22 13:15:00
8:35 AM,-9999,-9999,N/A,30.17,10.0,WNW,16.1,20.7,N/A,,Scattered Clouds,290,2013-01-22 13:35:00
8:55 AM,-9999,-9999,N/A,30.18,10.0,West,17.3,28.8,N/A,,Scattered Clouds,280,2013-01-22 13:55:00
9:15 AM,-9999,-9999,N/A,30.18,10.0,West,19.6,29.9,N/A,,Clear,270,2013-01-22 14:15:00
9:35 AM,-9999,-9999,N/A,30.19,10.0,West,21.9,26.5,N/A,,Clear,280,2013-01-22 14:35:00
9:55 AM,-9999,-9999,N/A,30.20,10.0,WNW,15.0,24.2,N/A,,Clear,300,2013-01-22 14:55:00
10:15 AM,-9999,-9999,N/A,30.21,10.0,WNW,16.1,28.8,N/A,,Scattered Clouds,290,2013-01-22 15:15:00
10:35 AM,-9999,-9999,N/A,30.21,10.0,WNW,21.9,31.1,N/A,,Scattered Clouds,300,2013-01-22 15:35:00
10:55 AM,-9999,-9999,N/A,30.20,10.0,NW,20.7,24.2,N/A,,Clear,310,2013-01-22 15:55:00
11:15 AM,-9999,-9999,N/A,30.20,10.0,WNW,16.1,21.9,N/A,,Clear,290,2013-01-22 16:15:00
11:35 AM,-9999,-9999,N/A,30.19,10.0,West,18.4,25.3,N/A,,Clear,270,2013-01-22 16:35:00
11:55 AM,-9999,-9999,N/A,30.18,10.0,West,17.3,27.6,N/A,,Clear,270,2013-01-22 16:55:00
12:15 PM,-9999,-9999,N/A,30.18,10.0,West,20.7,26.5,N/A,,Clear,280,2013-01-22 17:15:00
12:35 PM,-9999,-9999,N/A,30.17,10.0,West,13.8,27.6,N/A,,Scattered Clouds,280,2013-01-22 17:35:00
12:55 PM,-9999,-9999,N/A,30.17,10.0,WNW,17.3,28.8,N/A,,Scattered Clouds,290,2013-01-22 17:55:00
1:15 PM,-9999,-9999,N/A,30.16,10.0,NW,16.1,27.6,N/A,,Scattered Clouds,310,2013-01-22 18:15:00
1:35 PM,-9999,-9999,N/A,30.15,10.0,WNW,21.9,28.8,N/A,,Clear,290,2013-01-22 18:35:00
1:55 PM,-9999,-9999,N/A,30.15,10.0,WNW,17.3,31.1,N/A,,Clear,300,2013-01-22 18:55:00
2:15 PM,-9999,-9999,N/A,30.15,10.0,WNW,16.1,23.0,N/A,,Clear,290,2013-01-22 19:15:00
2:35 PM,-9999,-9999,N/A,30.16,10.0,WNW,17.3,25.3,N/A,,Clear,300,2013-01-22 19:35:00
2:55 PM,-9999,-9999,N/A,30.16,10.0,WNW,17.3,26.5,N/A,,Clear,290,2013-01-22 19:55:00
3:15 PM,-9999,-9999,N/A,30.16,10.0,NW,17.3,20.7,N/A,,Clear,320,2013-01-22 20:15:00
3:35 PM,-9999,-9999,N/A,30.16,10.0,NW,15.0,20.7,N/A,,Clear,310,2013-01-22 20:35:00
3:55 PM,-9999,-9999,N/A,30.16,10.0,NW,13.8,20.7,N/A,,Clear,310,2013-01-22 20:55:00
4:15 PM,-9999,-9999,N/A,30.17,10.0,WNW,16.1,23.0,N/A,,Clear,290,2013-01-22 21:15:00
4:35 PM,21.2,5.0,50,30.18,10.0,WNW,13.8,-,N/A,,Clear,290,2013-01-22 21:35:00
4:55 PM,-9999,-9999,N/A,30.18,10.0,WNW,16.1,21.9,N/A,,Clear,300,2013-01-22 21:55:00
5:15 PM,-9999,-9999,N/A,30.19,10.0,WNW,12.7,-,N/A,,Clear,300,2013-01-22 22:15:00
5:35 PM,-9999,-9999,N/A,30.19,10.0,WNW,15.0,-,N/A,,Clear,300,2013-01-22 22:35:00
5:55 PM,17.6,1.4,49,30.20,10.0,NW,11.5,-,N/A,,Clear,320,2013-01-22 22:55:00
6:15 PM,17.6,1.4,49,30.21,10.0,NW,11.5,-,N/A,,Clear,310,2013-01-22 23:15:00
6:35 PM,17.6,1.4,49,30.21,10.0,NW,8.1,-,N/A,,Clear,310,2013-01-22 23:35:00
6:55 PM,17.6,1.4,49,30.22,10.0,NW,10.4,-,N/A,,Clear,310,2013-01-22 23:55:00
7:15 PM,17.6,1.4,49,30.22,10.0,NW,10.4,-,N/A,,Clear,310,2013-01-23 00:15:00
7:35 PM,17.6,1.4,49,30.22,10.0,NW,9.2,-,N/A,,Clear,320,2013-01-23 00:35:00
7:55 PM,17.6,1.4,49,30.23,10.0,NW,4.6,-,N/A,,Clear,320,2013-01-23 00:55:00
8:15 PM,17.6,1.4,49,30.23,10.0,NNW,5.8,-,N/A,,Clear,330,2013-01-23 01:15:00
8:55 PM,17.6,1.4,49,30.24,10.0,NW,8.1,-,N/A,,Clear,320,2013-01-23 01:55:00
9:15 PM,15.8,1.4,53,30.25,10.0,NW,8.1,-,N/A,,Clear,320,2013-01-23 02:15:00
9:35 PM,15.8,1.4,53,30.25,10.0,NW,5.8,-,N/A,,Clear,320,2013-01-23 02:35:00
9:55 PM,15.8,3.2,58,30.25,10.0,NW,8.1,-,N/A,,Clear,310,2013-01-23 02:55:00
10:15 PM,15.8,3.2,58,30.25,10.0,WNW,6.9,-,N/A,,Clear,300,2013-01-23 03:15:00
10:35 PM,17.6,1.4,49,30.25,10.0,WNW,9.2,-,N/A,,Clear,300,2013-01-23 03:35:00
10:55 PM,17.6,1.4,49,30.25,10.0,WNW,12.7,19.6,N/A,,Clear,290,2013-01-23 03:55:00
11:15 PM,17.6,1.4,49,30.25,10.0,WNW,15.0,18.4,N/A,,Clear,300,2013-01-23 04:15:00
11:55 PM,17.6,1.4,49,30.25,10.0,WNW,11.5,20.7,N/A,,Clear,290,2013-01-23 04:55:00